createdAt,value
2018-12-06T00:01:45.204Z,7.00
2018-12-06T00:04:13.684Z,7.00
2018-12-06T00:06:42.172Z,7.00
2018-12-06T00:09:10.640Z,7.00
2018-12-06T00:11:39.208Z,7.00
2018-12-06T00:14:08.465Z,7.00
2018-12-06T00:16:36.917Z,7.00
2018-12-06T00:19:10.095Z,7.00
2018-12-06T00:21:38.611Z,7.00
2018-12-06T00:24:07.125Z,7.00
2018-12-06T00:26:35.624Z,7.00
2018-12-06T00:29:04.157Z,7.00
2018-12-06T00:31:32.616Z,7.00
2018-12-06T00:34:01.222Z,7.00
2018-12-06T00:36:29.787Z,7.00
2018-12-06T00:38:58.439Z,7.00
2018-12-06T00:41:27.027Z,7.00
2018-12-06T00:43:55.480Z,7.00
2018-12-06T00:46:23.946Z,7.00
2018-12-06T00:48:52.411Z,7.00
2018-12-06T00:51:20.875Z,7.00
2018-12-06T00:53:49.555Z,7.00
2018-12-06T00:56:18.042Z,7.00
2018-12-06T00:58:46.534Z,7.00
2018-12-06T01:02:39.587Z,7.00
2018-12-06T01:05:08.211Z,7.00
2018-12-06T01:07:36.664Z,7.00
2018-12-06T01:10:06.462Z,7.00
2018-12-06T01:12:34.970Z,6.90
2018-12-06T01:15:03.979Z,6.90
2018-12-06T01:17:32.601Z,6.90
2018-12-06T01:20:01.037Z,6.80
2018-12-06T01:22:29.519Z,6.80
2018-12-06T01:24:58.047Z,6.70
2018-12-06T01:27:26.508Z,6.60
2018-12-06T01:29:55.008Z,6.60
2018-12-06T01:32:23.672Z,6.60
2018-12-06T01:34:52.273Z,6.60
2018-12-06T01:37:20.824Z,6.60
2018-12-06T01:39:49.354Z,6.70
2018-12-06T01:42:17.917Z,6.70
2018-12-06T01:44:46.378Z,6.70
2018-12-06T01:47:14.915Z,6.70
2018-12-06T01:49:43.408Z,6.70
2018-12-06T01:52:12.018Z,6.80
2018-12-06T01:54:40.735Z,6.80
2018-12-06T01:57:09.193Z,6.80
2018-12-06T01:59:37.752Z,6.80
2018-12-06T02:02:06.302Z,6.90
2018-12-06T02:04:34.765Z,6.90
2018-12-06T02:07:03.243Z,6.90
2018-12-06T02:09:31.752Z,7.00
2018-12-06T02:12:00.370Z,6.90
2018-12-06T02:14:28.977Z,6.90
2018-12-06T02:16:57.744Z,6.90
2018-12-06T02:19:26.181Z,6.90
2018-12-06T02:21:54.631Z,7.00
2018-12-06T02:24:23.141Z,7.00
2018-12-06T02:26:51.741Z,7.00
2018-12-06T02:29:20.212Z,7.00
2018-12-06T02:31:48.865Z,7.00
2018-12-06T02:34:17.305Z,7.00
2018-12-06T02:36:45.746Z,7.00
2018-12-06T02:39:14.229Z,7.00
2018-12-06T02:41:42.710Z,7.00
2018-12-06T02:44:11.438Z,7.00
2018-12-06T02:46:39.929Z,7.00
2018-12-06T02:49:08.413Z,7.00
2018-12-06T02:51:37.046Z,7.00
2018-12-06T02:54:05.539Z,7.00
2018-12-06T02:56:34.098Z,7.00
2018-12-06T02:59:02.563Z,7.00
2018-12-06T03:01:31.050Z,7.00
2018-12-06T03:03:59.529Z,7.00
2018-12-06T03:06:28.027Z,7.10
2018-12-06T03:08:56.525Z,7.10
2018-12-06T03:11:24.997Z,7.00
2018-12-06T03:13:53.472Z,7.00
2018-12-06T03:16:21.968Z,7.00
2018-12-06T03:18:50.408Z,7.10
2018-12-06T03:21:18.857Z,7.10
2018-12-06T03:23:47.391Z,7.10
2018-12-06T03:26:15.875Z,7.10
2018-12-06T03:28:44.429Z,7.10
2018-12-06T03:31:12.936Z,7.10
2018-12-06T03:33:41.647Z,7.10
2018-12-06T03:36:10.191Z,7.10
2018-12-06T03:38:38.657Z,7.10
2018-12-06T03:41:07.452Z,7.10
2018-12-06T03:43:35.942Z,7.10
2018-12-06T03:46:04.471Z,7.10
2018-12-06T03:48:32.984Z,7.10
2018-12-06T03:51:01.480Z,7.10
2018-12-06T03:53:30.324Z,7.10
2018-12-06T03:55:58.833Z,7.10
2018-12-06T03:58:27.256Z,7.10
2018-12-06T04:00:55.764Z,7.10
2018-12-06T04:03:24.217Z,7.10
2018-12-06T04:05:52.972Z,7.10
2018-12-06T04:08:21.533Z,7.10
2018-12-06T04:10:49.977Z,7.20
2018-12-06T04:13:18.440Z,7.20
2018-12-06T04:15:46.974Z,7.20
2018-12-06T04:18:15.477Z,7.20
2018-12-06T04:20:43.934Z,7.20
2018-12-06T04:23:12.460Z,7.20
2018-12-06T04:25:40.908Z,7.20
2018-12-06T04:28:09.359Z,7.20
2018-12-06T04:30:37.868Z,7.20
2018-12-06T04:33:06.340Z,7.20
2018-12-06T04:35:34.763Z,7.20
2018-12-06T04:38:03.404Z,7.20
2018-12-06T04:40:31.877Z,7.20
2018-12-06T04:43:00.413Z,7.20
2018-12-06T04:45:28.942Z,7.20
2018-12-06T04:47:57.581Z,7.20
2018-12-06T04:50:26.171Z,7.20
2018-12-06T04:52:54.731Z,7.20
2018-12-06T04:55:23.169Z,7.20
2018-12-06T04:57:51.778Z,7.20
2018-12-06T05:00:20.386Z,7.20
2018-12-06T05:02:48.843Z,7.30
2018-12-06T05:05:17.566Z,7.30
2018-12-06T05:07:46.122Z,7.30
2018-12-06T05:10:14.619Z,7.30
2018-12-06T05:12:43.256Z,7.30
2018-12-06T05:15:11.828Z,7.30
2018-12-06T05:17:40.411Z,7.30
2018-12-06T05:20:08.887Z,7.30
2018-12-06T05:22:37.378Z,7.30
2018-12-06T05:25:06.427Z,7.30
2018-12-06T05:27:34.896Z,7.30
2018-12-06T05:30:04.149Z,7.30
2018-12-06T05:32:32.679Z,7.30
2018-12-06T05:35:01.248Z,7.30
2018-12-06T05:37:29.735Z,7.30
2018-12-06T05:39:58.213Z,7.30
2018-12-06T05:42:26.688Z,7.30
2018-12-06T05:44:55.304Z,7.40
2018-12-06T05:47:23.919Z,7.40
2018-12-06T05:49:52.376Z,7.40
2018-12-06T05:52:20.888Z,7.40
2018-12-06T05:54:49.345Z,7.40
2018-12-06T05:57:17.793Z,7.50
2018-12-06T05:59:46.284Z,7.50
2018-12-06T06:02:14.715Z,7.50
2018-12-06T06:04:43.179Z,7.50
2018-12-06T06:07:11.699Z,7.50
2018-12-06T06:09:40.136Z,7.50
2018-12-06T06:12:08.569Z,7.50
2018-12-06T06:14:37.143Z,7.50
2018-12-06T06:17:05.744Z,7.50
2018-12-06T06:19:34.183Z,7.50
2018-12-06T06:22:02.664Z,7.50
2018-12-06T06:24:31.171Z,7.50
2018-12-06T06:26:59.624Z,7.60
2018-12-06T06:29:28.122Z,7.60
2018-12-06T06:31:56.740Z,7.60
2018-12-06T06:34:25.234Z,7.60
2018-12-06T06:36:53.739Z,7.60
2018-12-06T06:39:22.329Z,7.60
2018-12-06T06:41:50.820Z,7.60
2018-12-06T06:44:19.356Z,7.60
2018-12-06T06:46:47.840Z,7.60
2018-12-06T06:49:16.264Z,7.60
2018-12-06T06:51:44.779Z,7.60
2018-12-06T06:54:13.229Z,7.60
2018-12-06T06:56:41.765Z,7.60
2018-12-06T06:59:10.235Z,7.70
2018-12-06T07:01:38.821Z,7.60
2018-12-06T07:04:07.260Z,7.70
2018-12-06T07:06:35.773Z,7.70
2018-12-06T07:09:07.197Z,7.70
2018-12-06T07:11:36.234Z,7.70
2018-12-06T07:14:05.021Z,7.70
2018-12-06T07:16:33.504Z,7.70
2018-12-06T07:19:02.036Z,7.70
2018-12-06T07:21:30.530Z,7.70
2018-12-06T07:23:59.017Z,7.70
2018-12-06T07:26:27.649Z,7.80
2018-12-06T07:28:56.156Z,7.80
2018-12-06T07:31:24.633Z,7.80
2018-12-06T07:33:53.277Z,7.80
2018-12-06T07:36:21.887Z,7.80
2018-12-06T07:38:50.310Z,7.80
2018-12-06T07:41:18.822Z,7.80
2018-12-06T07:43:47.316Z,7.80
2018-12-06T07:46:15.802Z,7.80
2018-12-06T07:48:44.402Z,7.80
2018-12-06T07:51:12.919Z,7.90
2018-12-06T07:55:05.637Z,7.90
2018-12-06T07:57:34.116Z,7.90
2018-12-06T08:00:02.600Z,7.80
2018-12-06T08:02:31.105Z,7.90
2018-12-06T08:04:59.536Z,7.90
2018-12-06T08:07:28.116Z,7.90
2018-12-06T08:09:56.820Z,7.90
2018-12-06T08:12:25.324Z,7.90
2018-12-06T08:14:53.791Z,7.90
2018-12-06T08:17:22.341Z,7.90
2018-12-06T08:19:50.775Z,7.90
2018-12-06T08:22:19.240Z,7.90
2018-12-06T08:24:47.779Z,7.90
2018-12-06T08:27:16.324Z,7.90
2018-12-06T08:29:44.822Z,7.90
2018-12-06T08:32:13.291Z,7.90
2018-12-06T08:34:41.774Z,7.90
2018-12-06T08:37:10.507Z,7.90
2018-12-06T08:39:39.018Z,7.90
2018-12-06T08:42:07.469Z,7.90
2018-12-06T08:44:35.907Z,7.90
2018-12-06T08:47:04.490Z,8.00
2018-12-06T08:49:32.941Z,7.90
2018-12-06T08:52:01.409Z,7.90
2018-12-06T08:54:29.911Z,7.90
2018-12-06T08:56:58.391Z,7.90
2018-12-06T08:59:27.002Z,7.90
2018-12-06T09:01:55.575Z,7.90
2018-12-06T09:04:24.035Z,7.90
2018-12-06T09:06:52.875Z,7.90
2018-12-06T09:09:21.443Z,7.90
2018-12-06T09:11:50.017Z,7.90
2018-12-06T09:14:18.493Z,7.90
2018-12-06T09:16:46.992Z,7.90
2018-12-06T09:19:15.464Z,7.90
2018-12-06T09:21:43.933Z,7.90
2018-12-06T09:24:12.447Z,8.00
2018-12-06T09:26:40.996Z,8.00
2018-12-06T09:29:09.431Z,8.00
2018-12-06T09:31:38.004Z,8.00
2018-12-06T09:34:07.459Z,8.00
2018-12-06T09:36:37.249Z,8.00
2018-12-06T09:39:08.983Z,8.10
2018-12-06T09:49:07.359Z,8.10
2018-12-06T09:51:35.816Z,8.10
2018-12-06T09:54:04.516Z,8.20
2018-12-06T09:56:33.029Z,8.20
2018-12-06T09:59:01.537Z,8.20
2018-12-06T10:01:30.011Z,8.30
2018-12-06T10:03:58.536Z,8.30
2018-12-06T10:06:27.042Z,8.30
2018-12-06T10:08:55.519Z,8.40
2018-12-06T10:11:24.087Z,8.40
2018-12-06T10:13:52.521Z,8.40
2018-12-06T10:16:20.968Z,8.40
2018-12-06T10:18:49.610Z,8.40
2018-12-06T10:21:18.067Z,8.40
2018-12-06T10:23:46.544Z,8.40
2018-12-06T10:26:15.087Z,8.40
2018-12-06T10:28:43.549Z,8.40
2018-12-06T10:31:12.037Z,8.50
2018-12-06T10:33:40.551Z,8.40
2018-12-06T10:36:09.049Z,8.40
2018-12-06T10:38:37.549Z,8.40
2018-12-06T10:41:06.071Z,8.40
2018-12-06T10:43:34.541Z,8.40
2018-12-06T10:46:03.077Z,8.40
2018-12-06T10:48:31.688Z,8.50
2018-12-06T10:51:11.387Z,8.50
2018-12-06T10:53:40.124Z,8.50
2018-12-06T10:56:08.590Z,8.50
2018-12-06T10:58:37.060Z,8.50
2018-12-06T11:01:08.570Z,8.50
2018-12-06T11:03:42.386Z,8.50
2018-12-06T11:06:10.901Z,8.50
2018-12-06T11:08:39.369Z,8.50
2018-12-06T11:11:07.908Z,8.50
2018-12-06T11:13:36.430Z,8.50
2018-12-06T11:16:04.918Z,8.50
2018-12-06T11:18:33.334Z,8.60
2018-12-06T11:21:01.986Z,8.60
2018-12-06T11:23:30.504Z,8.70
2018-12-06T11:25:59.006Z,8.70
2018-12-06T11:28:27.517Z,8.70
2018-12-06T11:30:56.008Z,8.80
2018-12-06T11:33:24.523Z,8.80
2018-12-06T11:35:53.024Z,8.80
2018-12-06T11:38:21.498Z,8.80
2018-12-06T11:40:49.991Z,8.80
2018-12-06T11:43:18.502Z,8.80
2018-12-06T11:45:46.979Z,8.90
2018-12-06T11:48:15.391Z,8.90
2018-12-06T11:50:43.895Z,8.80
2018-12-06T11:53:12.602Z,8.90
2018-12-06T11:57:05.286Z,8.90
2018-12-06T11:59:33.780Z,9.00
2018-12-06T12:02:09.767Z,9.00
2018-12-06T12:04:32.841Z,9.00
2018-12-06T12:07:01.301Z,9.10
2018-12-06T12:09:29.809Z,9.10
2018-12-06T12:11:58.388Z,9.10
2018-12-06T12:14:26.848Z,9.20
2018-12-06T12:16:55.441Z,9.30
2018-12-06T12:19:23.971Z,9.30
2018-12-06T12:21:52.404Z,9.30
2018-12-06T12:24:20.877Z,9.40
2018-12-06T12:26:49.407Z,9.40
2018-12-06T12:29:17.902Z,9.40
2018-12-06T12:31:46.356Z,9.40
2018-12-06T12:34:14.886Z,9.40
2018-12-06T12:36:43.334Z,9.40
2018-12-06T12:39:11.776Z,9.40
2018-12-06T12:41:40.276Z,9.50
2018-12-06T12:44:08.955Z,9.60
2018-12-06T12:46:37.428Z,9.60
2018-12-06T12:49:05.977Z,9.60
2018-12-06T12:51:34.592Z,9.60
2018-12-06T12:54:03.032Z,9.70
2018-12-06T12:56:31.633Z,9.80
2018-12-06T12:59:00.084Z,9.80
2018-12-06T13:01:28.535Z,9.80
2018-12-06T13:03:57.044Z,9.90
2018-12-06T13:06:25.606Z,9.90
2018-12-06T13:08:54.016Z,9.90
2018-12-06T13:11:22.499Z,9.90
2018-12-06T13:13:50.956Z,9.90
2018-12-06T13:16:19.579Z,9.90
2018-12-06T13:18:48.216Z,9.90
2018-12-06T13:21:16.889Z,9.80
2018-12-06T13:23:45.323Z,9.80
2018-12-06T13:26:13.832Z,9.80
2018-12-06T13:28:42.763Z,9.70
2018-12-06T13:31:11.356Z,9.70
2018-12-06T13:33:39.855Z,9.70
2018-12-06T13:36:09.304Z,9.70
2018-12-06T13:38:37.916Z,9.70
2018-12-06T13:41:06.391Z,9.70
2018-12-06T13:43:34.863Z,9.70
2018-12-06T13:46:03.498Z,9.70
2018-12-06T13:48:32.091Z,9.70
2018-12-06T13:51:00.572Z,9.70
2018-12-06T13:53:29.022Z,9.70
2018-12-06T13:55:57.694Z,9.70
2018-12-06T13:58:26.157Z,9.70
2018-12-06T14:00:55.062Z,9.70
2018-12-06T14:03:24.082Z,9.80
2018-12-06T14:05:52.508Z,9.80
2018-12-06T14:08:20.942Z,9.80
2018-12-06T14:10:52.599Z,9.80
2018-12-06T14:13:23.605Z,9.80
2018-12-06T14:15:51.573Z,9.80
2018-12-06T14:18:20.060Z,9.80
2018-12-06T14:20:48.496Z,9.80
2018-12-06T14:23:17.026Z,9.80
2018-12-06T14:25:45.556Z,9.80
2018-12-06T14:28:14.015Z,9.80
2018-12-06T14:30:42.508Z,9.80
2018-12-06T14:33:11.027Z,9.80
2018-12-06T14:35:39.519Z,9.70
2018-12-06T14:38:08.165Z,9.70
2018-12-06T14:40:36.828Z,9.70
2018-12-06T14:43:05.450Z,9.60
2018-12-06T14:45:33.911Z,9.60
2018-12-06T14:48:02.562Z,9.70
2018-12-06T14:50:31.026Z,9.60
2018-12-06T14:52:59.430Z,9.60
2018-12-06T14:55:28.037Z,9.60
2018-12-06T14:57:56.643Z,9.60
2018-12-06T15:00:25.092Z,9.60
2018-12-06T15:02:53.601Z,9.60
2018-12-06T15:05:22.066Z,9.60
2018-12-06T15:07:50.517Z,9.60
2018-12-06T15:10:19.016Z,9.60
2018-12-06T15:12:47.478Z,9.60
2018-12-06T15:15:15.942Z,9.60
2018-12-06T15:17:44.427Z,9.60
2018-12-06T15:20:12.869Z,9.60
2018-12-06T15:22:41.332Z,9.60
2018-12-06T15:25:09.956Z,9.60
2018-12-06T15:27:38.821Z,9.50
2018-12-06T15:30:09.590Z,9.50
2018-12-06T15:32:38.114Z,9.50
2018-12-06T15:35:06.932Z,9.50
2018-12-06T15:37:35.406Z,9.50
2018-12-06T15:40:04.885Z,9.50
2018-12-06T15:42:33.343Z,9.40
2018-12-06T15:45:01.803Z,9.40
2018-12-06T15:47:30.328Z,9.40
2018-12-06T15:49:58.790Z,9.30
2018-12-06T15:52:27.264Z,9.30
2018-12-06T15:54:55.740Z,9.40
2018-12-06T15:57:24.249Z,9.30
2018-12-06T15:59:52.740Z,9.30
2018-12-06T16:02:21.287Z,9.30
2018-12-06T16:04:49.743Z,9.30
2018-12-06T16:07:18.183Z,9.30
2018-12-06T16:09:46.715Z,9.20
2018-12-06T16:12:15.175Z,9.20
2018-12-06T16:14:43.775Z,9.20
2018-12-06T16:17:12.313Z,9.20
2018-12-06T16:19:40.795Z,9.20
2018-12-06T16:22:09.248Z,9.20
2018-12-06T16:24:38.053Z,9.20
2018-12-06T16:27:06.537Z,9.20
2018-12-06T16:29:35.121Z,9.20
2018-12-06T16:32:03.788Z,9.20
2018-12-06T16:34:32.313Z,9.20
2018-12-06T16:37:00.787Z,9.20
2018-12-06T16:39:29.435Z,9.20
2018-12-06T16:41:57.932Z,9.20
2018-12-06T16:44:26.371Z,9.10
2018-12-06T16:46:54.920Z,9.10
2018-12-06T16:49:23.366Z,9.10
2018-12-06T16:51:51.975Z,9.10
2018-12-06T16:54:20.560Z,9.10
2018-12-06T16:56:49.063Z,9.00
2018-12-06T16:59:17.498Z,9.00
2018-12-06T17:01:45.977Z,9.00
2018-12-06T17:04:14.420Z,8.90
2018-12-06T17:06:42.944Z,8.90
2018-12-06T17:09:11.615Z,8.90
2018-12-06T17:11:40.086Z,8.80
2018-12-06T17:14:08.565Z,8.80
2018-12-06T17:16:37.241Z,8.70
2018-12-06T17:19:05.893Z,8.70
2018-12-06T17:21:34.356Z,8.60
2018-12-06T17:24:02.914Z,8.60
2018-12-06T17:26:31.484Z,8.60
2018-12-06T17:28:59.972Z,8.50
2018-12-06T17:31:28.520Z,8.50
2018-12-06T17:33:56.981Z,8.50
2018-12-06T17:36:25.508Z,8.40
2018-12-06T17:38:54.040Z,8.40
2018-12-06T17:41:22.476Z,8.40
2018-12-06T17:43:51.053Z,8.30
2018-12-06T17:46:19.692Z,8.30
2018-12-06T17:48:48.168Z,8.30
2018-12-06T17:51:16.876Z,8.30
2018-12-06T17:53:51.968Z,8.20
2018-12-06T17:56:16.109Z,8.20
2018-12-06T17:58:44.740Z,8.20
2018-12-06T18:01:13.351Z,8.20
2018-12-06T18:03:41.980Z,8.20
2018-12-06T18:06:10.734Z,8.10
2018-12-06T18:08:39.218Z,8.10
2018-12-06T18:11:07.655Z,8.10
2018-12-06T18:13:36.094Z,8.10
2018-12-06T18:16:07.854Z,8.10
2018-12-06T18:18:40.410Z,8.10
2018-12-06T18:21:06.827Z,8.00
2018-12-06T18:23:35.486Z,8.00
2018-12-06T18:26:03.997Z,8.00
2018-12-06T18:28:32.612Z,8.00
2018-12-06T18:31:01.100Z,8.00
2018-12-06T18:33:29.744Z,8.00
2018-12-06T18:35:58.339Z,7.90
2018-12-06T18:38:26.884Z,7.90
2018-12-06T18:40:55.347Z,7.90
2018-12-06T18:43:23.909Z,7.90
2018-12-06T18:45:52.524Z,7.90
2018-12-06T18:48:21.080Z,7.90
2018-12-06T18:50:49.532Z,7.90
2018-12-06T18:53:18.004Z,7.90
2018-12-06T18:55:46.501Z,7.90
2018-12-06T18:58:14.982Z,7.80
2018-12-06T19:00:43.498Z,7.80
2018-12-06T19:03:11.999Z,7.80
2018-12-06T19:05:40.480Z,7.80
2018-12-06T19:08:09.026Z,7.80
2018-12-06T19:10:37.570Z,7.80
2018-12-06T19:13:06.490Z,7.70
2018-12-06T19:15:38.148Z,7.70
2018-12-06T19:18:06.629Z,7.70
2018-12-06T19:20:35.123Z,7.70
2018-12-06T19:23:03.735Z,7.70
2018-12-06T19:25:32.177Z,7.70
2018-12-06T19:28:00.801Z,7.60
2018-12-06T19:30:29.321Z,7.60
2018-12-06T19:33:02.837Z,7.60
2018-12-06T19:35:28.354Z,7.60
2018-12-06T19:37:58.123Z,7.50
2018-12-06T19:40:26.699Z,7.50
2018-12-06T19:42:55.144Z,7.50
2018-12-06T19:45:23.724Z,7.50
2018-12-06T19:47:52.195Z,7.50
2018-12-06T19:50:20.785Z,7.40
2018-12-06T19:52:49.311Z,7.40
2018-12-06T19:55:17.765Z,7.40
2018-12-06T19:57:46.254Z,7.40
2018-12-06T20:00:14.839Z,7.40
2018-12-06T20:02:43.309Z,7.40
2018-12-06T20:05:11.807Z,7.40
2018-12-06T20:07:40.324Z,7.40
2018-12-06T20:10:10.163Z,7.40
2018-12-06T20:12:38.644Z,7.40
2018-12-06T20:15:07.675Z,7.40
2018-12-06T20:17:36.111Z,7.40
2018-12-06T20:20:05.172Z,7.40
2018-12-06T20:22:33.814Z,7.30
2018-12-06T20:25:02.290Z,7.30
2018-12-06T20:27:30.735Z,7.30
2018-12-06T20:29:59.300Z,7.30
2018-12-06T20:32:27.894Z,7.30
2018-12-06T20:34:56.409Z,7.30
2018-12-06T20:37:24.924Z,7.20
2018-12-06T20:39:53.411Z,7.20
2018-12-06T20:42:21.899Z,7.20
2018-12-06T20:44:50.455Z,7.20
2018-12-06T20:47:19.923Z,7.20
2018-12-06T20:49:48.401Z,7.20
2018-12-06T20:52:16.993Z,7.20
2018-12-06T20:54:45.454Z,7.20
2018-12-06T20:57:13.885Z,7.20
2018-12-06T20:59:42.420Z,7.10
2018-12-06T21:02:10.926Z,7.10
2018-12-06T21:04:39.488Z,7.10
2018-12-06T21:07:08.026Z,7.10
2018-12-06T21:09:36.958Z,7.10
2018-12-06T21:12:05.403Z,7.10
2018-12-06T21:14:33.928Z,7.10
2018-12-06T21:17:02.632Z,7.10
2018-12-06T21:19:31.051Z,7.10
2018-12-06T21:21:59.543Z,7.10
2018-12-06T21:24:27.981Z,7.10
2018-12-06T21:26:56.424Z,7.10
2018-12-06T21:29:25.071Z,7.10
2018-12-06T21:31:53.745Z,7.00
2018-12-06T21:34:22.213Z,7.00
2018-12-06T21:36:50.828Z,7.00
2018-12-06T21:39:19.408Z,7.00
2018-12-06T21:41:47.887Z,7.00
2018-12-06T21:44:16.552Z,7.00
2018-12-06T21:46:45.024Z,7.00
2018-12-06T21:49:13.628Z,7.00
2018-12-06T21:51:42.211Z,7.00
2018-12-06T21:54:10.763Z,7.00
2018-12-06T21:56:39.221Z,7.00
2018-12-06T21:59:07.660Z,7.00
2018-12-06T22:01:36.128Z,7.00
2018-12-06T22:04:04.729Z,7.00
2018-12-06T22:06:33.370Z,7.00
2018-12-06T22:09:01.822Z,7.00
2018-12-06T22:12:33.139Z,7.00
2018-12-06T22:15:01.612Z,7.00
2018-12-06T22:17:30.152Z,7.00
2018-12-06T22:19:58.639Z,7.00
2018-12-06T22:22:27.080Z,7.00
2018-12-06T22:24:55.550Z,7.00
2018-12-06T22:27:24.055Z,7.00
2018-12-06T22:29:52.500Z,7.00
2018-12-06T22:32:20.940Z,7.00
2018-12-06T22:34:49.717Z,7.00
2018-12-06T22:37:18.145Z,7.00
2018-12-06T22:39:46.663Z,7.10
2018-12-06T22:42:15.253Z,7.00
2018-12-06T22:44:43.693Z,7.00
2018-12-06T22:47:12.154Z,7.00
2018-12-06T22:49:40.755Z,7.00
2018-12-06T22:52:09.216Z,7.00
2018-12-06T22:54:37.803Z,7.00
2018-12-06T22:57:06.286Z,7.00
2018-12-06T22:59:34.777Z,7.00
2018-12-06T23:02:03.393Z,7.00
2018-12-06T23:04:32.011Z,7.00
2018-12-06T23:07:00.489Z,7.00
2018-12-06T23:09:28.909Z,7.00
2018-12-06T23:11:57.478Z,7.00
2018-12-06T23:14:25.896Z,7.00
2018-12-06T23:16:54.672Z,7.00
2018-12-06T23:19:23.240Z,7.00
2018-12-06T23:21:51.741Z,7.00
2018-12-06T23:24:20.343Z,7.00
2018-12-06T23:26:48.891Z,7.00
2018-12-06T23:29:17.372Z,7.00
2018-12-06T23:31:45.833Z,7.00
2018-12-06T23:34:14.349Z,7.00
2018-12-06T23:36:42.952Z,7.00
2018-12-06T23:39:11.395Z,7.00
2018-12-06T23:41:39.876Z,7.00
2018-12-06T23:44:08.304Z,7.00
2018-12-06T23:46:36.771Z,7.00
2018-12-06T23:49:05.298Z,7.00
2018-12-06T23:51:38.420Z,7.00
2018-12-06T23:54:07.075Z,7.00
2018-12-06T23:56:35.588Z,7.00
2018-12-06T23:59:04.239Z,7.00
